• Join FlightAware (Why Join?)
  • Login
  • US Flag 
07:16PM EDT


 

Airport Tracker/Info


-or-


 

Live Flight TrackerFlight Track Log ✈ N777NC ✈ 10-Jul-2013 ✈ KATL - KSDF

Flight Track Log - Related Links

Times and Time Zones

All times are in EDT time to prevent confusion due to time zone crossing. See the N777NC flight status page for this flight to view local times or setup timezone preferences in your user account.

Time Position Orientation Groundspeed Altitude Reporting Facility
EDT Latitude Longitude Course Direction KTS MPH feet Rate Location/Type
01:17PM 33.6500 -84.3833 348° North 183 211 2,200  Level Atlanta TRACON
01:18PM 33.6667 -84.3167 73° East 255 293 3,700 1,800 Climbing Atlanta TRACON
01:19PM 33.7333 -84.2833 23° Northeast 276 318 5,700 1,860 Climbing Atlanta TRACON
01:21PM 33.9067 -84.2917 358° North 295 339 9,800 1,380 Climbing Atlanta Center
01:22PM 33.9833 -84.3000 355° North 307 353 10,000 1,140 Climbing Atlanta TRACON
01:23PM 34.2078 -84.5687 348° North  Level FlightAware Approximate
01:24PM 34.1294 -84.4553 319° Northwest 337 388 13,300  Level Atlanta Center
01:25PM 34.2067 -84.5211 325° Northwest 344 396 15,200 1,920 Climbing Atlanta Center
01:26PM 34.2981 -84.5794 332° Northwest 360 414 17,200 1,800 Climbing Atlanta Center
01:27PM 34.3961 -84.6103 345° North 360 414 18,900 1,620 Climbing Atlanta Center
01:28PM 34.4961 -84.6436 345° North 370 426 20,500 1,500 Climbing Atlanta Center
01:29PM 34.5961 -84.6872 340° North 375 432 21,900 1,200 Climbing Atlanta Center
01:30PM 34.6981 -84.7261 343° North 382 440 23,000 1,140 Climbing Atlanta Center
01:31PM 34.7936 -84.7975 328° Northwest 387 445 24,200 900 Climbing Atlanta Center
01:32PM 34.8764 -84.8969 315° West 407 468 24,800 600 Climbing Atlanta Center
01:33PM 34.9572 -85.0069 312° West 417 480 25,500 600 Climbing Atlanta Center
01:34PM 35.0333 -85.1219 309° West 430 495 26,100 600 Climbing Atlanta Center
01:35PM 35.1200 -85.2272 315° West 441 507 26,800 600 Climbing Atlanta Center
01:36PM 35.2192 -85.3150 324° Northwest 441 507 27,300 600 Climbing Atlanta Center
01:37PM 35.3417 -85.3806 336° Northwest 431 496 28,000 300 Climbing Atlanta Center
01:38PM 35.4644 -85.4081 350° North 438 504 28,000  Level Atlanta Center
01:39PM 35.5917 -85.4153 357° North 443 510 28,000  Level Atlanta Center
01:41PM 35.8486 -85.3747 North 466 536 28,000  Level Indianapolis Center
01:42PM 35.9719 -85.3203 20° North 463 533 28,000  Level Indianapolis Center
01:43PM 36.0978 -85.2736 17° North 467 537 28,000  Level Indianapolis Center
01:44PM 36.2256 -85.2400 12° North 465 535 28,000  Level Indianapolis Center
01:45PM 36.3525 -85.2014 14° North 465 535 28,000  Level Indianapolis Center
01:46PM 36.4817 -85.1806 North 465 535 28,000  Level Indianapolis Center
01:47PM 36.6100 -85.1775 North 463 533 28,000  Level Indianapolis Center
01:48PM 36.7397 -85.1617 North 466 536 28,000 -180 Level Indianapolis Center
01:50PM 36.8586 -85.0975 23° Northeast 471 542 27,700 -1,740 Descending Indianapolis Center
01:51PM 37.0017 -85.0442 17° North 451 519 24,500 -2,700 Descending Indianapolis Center
01:52PM 37.1200 -85.0278 North 446 513 22,200 -2,700 Descending Indianapolis Center
01:53PM 37.2372 -85.0297 359° North 425 489 19,000 -2,640 Descending Indianapolis Center
01:54PM 37.3483 -85.0211 North 407 468 16,800 -2,340 Descending Indianapolis Center
01:55PM 37.4547 -85.0061 North 388 447 14,300 -2,460 Descending Indianapolis Center
01:56PM 37.5558 -84.9872 North 371 427 11,800 -1,680 Descending Indianapolis Center
01:57PM 37.6503 -84.9767 North 350 403 10,900 -960 Descending Indianapolis Center
01:58PM 37.7431 -85.0528 327° Northwest 345 397 9,900 -480 Descending Indianapolis Center
01:59PM 37.7997 -85.1461 308° West 335 386 10,000  Climbing Indianapolis Center
02:00PM 37.8403 -85.2192 305° West 301 346 10,000 -60 Level Indianapolis Center
02:01PM 37.8944 -85.2889 315° West 281 323 9,900 -900 Descending Indianapolis Center
02:02PM 37.9575 -85.3689 315° West 269 310 8,200 -1,680 Descending Indianapolis Center
02:03PM 38.0122 -85.4292 319° Northwest 262 302 6,500 -1,080 Descending Indianapolis Center
02:04PM 38.0500 -85.5036 303° West 254 292 6,000 -300 Descending Indianapolis Center
02:05PM 38.0936 -85.5800 306° West 262 302 5,900  Descending Indianapolis Center
02:06PM 38.1661 -85.6097 342° North 273 314 6,000 -60 Climbing Indianapolis Center
02:07PM 38.2364 -85.6292 348° North 262 302 5,800 -600 Descending Indianapolis Center
02:08PM 38.3039 -85.6506 346° North 255 293 4,800 -960 Descending Indianapolis Center
02:09PM 38.3678 -85.6725 345° North 248 285 3,900 -960 Descending Indianapolis Center
02:10PM 38.3686 -85.7378 271° West 219 252 2,900 -1,020 Descending Indianapolis Center